createdAt,value
2018-10-19T00:01:20.509Z,7.62
2018-10-19T00:03:49.148Z,7.79
2018-10-19T00:06:18.107Z,7.87
2018-10-19T00:08:46.926Z,7.79
2018-10-19T00:11:16.080Z,7.76
2018-10-19T00:13:45.014Z,7.89
2018-10-19T00:16:13.811Z,7.83
2018-10-19T00:18:42.470Z,7.68
2018-10-19T00:21:11.308Z,7.55
2018-10-19T00:23:40.040Z,7.45
2018-10-19T00:26:08.842Z,7.39
2018-10-19T00:28:37.517Z,7.37
2018-10-19T00:31:06.765Z,7.41
2018-10-19T00:33:35.524Z,7.51
2018-10-19T00:36:04.208Z,7.62
2018-10-19T00:38:32.894Z,7.79
2018-10-19T00:41:01.607Z,7.95
2018-10-19T00:43:30.535Z,8.07
2018-10-19T00:45:59.285Z,8.10
2018-10-19T00:48:27.986Z,8.06
2018-10-19T00:50:56.752Z,8.07
2018-10-19T00:53:25.509Z,8.04
2018-10-19T00:55:54.197Z,7.93
2018-10-19T00:58:22.914Z,7.89
2018-10-19T01:00:51.594Z,7.92
2018-10-19T01:03:20.634Z,7.79
2018-10-19T01:05:49.430Z,7.68
2018-10-19T01:08:18.208Z,7.58
2018-10-19T01:10:46.921Z,7.49
2018-10-19T01:13:15.546Z,7.44
2018-10-19T01:15:44.206Z,7.49
2018-10-19T01:18:12.877Z,7.64
2018-10-19T01:20:41.555Z,7.56
2018-10-19T01:23:10.371Z,7.46
2018-10-19T01:25:41.586Z,7.38
2018-10-19T01:28:10.854Z,7.30
2018-10-19T01:30:39.547Z,7.30
2018-10-19T01:33:08.308Z,7.43
2018-10-19T01:35:37.171Z,7.58
2018-10-19T01:38:05.854Z,7.70
2018-10-19T01:40:35.645Z,7.87
2018-10-19T01:43:04.460Z,8.11
2018-10-19T01:45:33.115Z,8.25
2018-10-19T01:48:01.810Z,8.26
2018-10-19T01:50:30.542Z,8.04
2018-10-19T01:52:59.336Z,7.86
2018-10-19T01:55:28.233Z,7.72
2018-10-19T01:57:56.902Z,7.67
2018-10-19T02:00:25.616Z,7.63
2018-10-19T02:02:54.314Z,7.59
2018-10-19T02:05:23.042Z,7.63
2018-10-19T02:07:51.792Z,7.70
2018-10-19T02:10:20.540Z,7.86
2018-10-19T02:12:49.177Z,8.04
2018-10-19T02:15:17.892Z,8.19
2018-10-19T02:17:46.777Z,8.29
2018-10-19T02:20:15.627Z,8.35
2018-10-19T02:22:44.361Z,8.55
2018-10-19T02:25:13.158Z,8.60
2018-10-19T02:27:42.139Z,8.60
2018-10-19T02:30:10.906Z,8.57
2018-10-19T02:32:39.566Z,8.56
2018-10-19T02:35:08.314Z,8.70
2018-10-19T02:37:37.128Z,8.91
2018-10-19T02:40:06.898Z,9.24
2018-10-19T02:42:35.851Z,9.47
2018-10-19T02:45:04.865Z,9.63
2018-10-19T02:47:33.823Z,9.81
2018-10-19T02:50:02.591Z,10.08
2018-10-19T02:52:31.497Z,10.21
2018-10-19T02:55:00.225Z,10.33
2018-10-19T02:57:28.883Z,10.41
2018-10-19T02:59:57.550Z,10.50
2018-10-19T03:02:26.186Z,10.60
2018-10-19T03:04:54.936Z,10.66
2018-10-19T03:07:23.902Z,10.78
2018-10-19T03:09:52.554Z,10.77
2018-10-19T03:12:21.308Z,10.90
2018-10-19T03:14:49.957Z,10.98
2018-10-19T03:17:18.640Z,11.01
2018-10-19T03:19:47.371Z,11.03
2018-10-19T03:22:16.037Z,11.03
2018-10-19T03:24:44.825Z,11.01
2018-10-19T03:27:13.927Z,10.98
2018-10-19T03:29:42.883Z,10.97
2018-10-19T03:32:11.571Z,10.99
2018-10-19T03:34:40.236Z,11.01
2018-10-19T03:37:08.890Z,11.09
2018-10-19T03:39:37.542Z,11.16
2018-10-19T03:42:06.498Z,11.15
2018-10-19T03:44:35.962Z,11.08
2018-10-19T03:47:05.226Z,11.09
2018-10-19T03:49:34.363Z,11.06
2018-10-19T03:52:03.302Z,11.02
2018-10-19T03:54:31.963Z,10.90
2018-10-19T03:57:00.667Z,10.88
2018-10-19T03:59:29.498Z,10.85
2018-10-19T04:01:58.263Z,10.87
2018-10-19T04:04:27.221Z,10.86
2018-10-19T04:06:56.046Z,10.93
2018-10-19T04:09:25.080Z,10.95
2018-10-19T04:11:53.841Z,10.96
2018-10-19T04:14:22.503Z,10.91
2018-10-19T04:16:51.169Z,10.89
2018-10-19T04:19:19.822Z,10.97
2018-10-19T04:21:48.510Z,11.02
2018-10-19T04:24:17.194Z,10.97
2018-10-19T04:26:45.979Z,11.03
2018-10-19T04:29:14.999Z,10.97
2018-10-19T04:31:43.885Z,10.92
2018-10-19T04:34:12.586Z,10.92
2018-10-19T04:36:41.235Z,10.97
2018-10-19T04:39:10.317Z,11.00
2018-10-19T04:41:39.176Z,11.09
2018-10-19T04:44:08.031Z,11.07
2018-10-19T04:46:36.824Z,11.04
2018-10-19T04:49:05.564Z,11.07
2018-10-19T04:51:34.232Z,11.15
2018-10-19T04:54:02.903Z,11.21
2018-10-19T04:56:31.557Z,11.11
2018-10-19T04:59:00.291Z,11.14
2018-10-19T05:01:29.112Z,11.20
2018-10-19T05:03:57.875Z,11.24
2018-10-19T05:06:26.557Z,11.29
2018-10-19T05:08:55.423Z,11.23
2018-10-19T05:11:24.078Z,11.24
2018-10-19T05:13:52.784Z,11.26
2018-10-19T05:16:21.501Z,11.33
2018-10-19T05:18:50.276Z,11.37
2018-10-19T05:21:19.127Z,11.33
2018-10-19T05:23:47.906Z,11.33
2018-10-19T05:26:16.911Z,11.27
2018-10-19T05:28:45.798Z,11.27
2018-10-19T05:31:14.813Z,11.31
2018-10-19T05:33:45.962Z,11.49
2018-10-19T05:36:14.662Z,11.57
2018-10-19T05:38:43.310Z,11.61
2018-10-19T05:41:12.147Z,11.53
2018-10-19T05:43:41.352Z,11.59
2018-10-19T05:46:10.246Z,11.57
2018-10-19T05:48:39.838Z,11.58
2018-10-19T05:51:09.369Z,11.50
2018-10-19T05:53:38.100Z,11.38
2018-10-19T05:56:07.687Z,11.41
2018-10-19T05:58:36.984Z,11.48
2018-10-19T06:01:05.895Z,11.61
2018-10-19T06:03:34.558Z,11.65
2018-10-19T06:06:03.201Z,11.65
2018-10-19T06:08:31.829Z,11.59
2018-10-19T06:11:00.559Z,11.67
2018-10-19T06:13:29.886Z,11.64
2018-10-19T06:15:58.807Z,11.68
2018-10-19T06:18:27.567Z,11.68
2018-10-19T06:20:56.223Z,11.76
2018-10-19T06:23:25.266Z,11.77
2018-10-19T06:25:53.996Z,11.80
2018-10-19T06:28:22.764Z,11.82
2018-10-19T06:30:51.426Z,11.85
2018-10-19T06:33:20.108Z,11.80
2018-10-19T06:35:48.989Z,11.82
2018-10-19T06:38:17.725Z,11.83
2018-10-19T06:40:46.567Z,11.86
2018-10-19T06:43:15.711Z,11.85
2018-10-19T06:45:44.548Z,11.84
2018-10-19T06:48:13.350Z,11.84
2018-10-19T06:50:42.013Z,11.85
2018-10-19T06:53:10.740Z,11.83
2018-10-19T06:55:39.619Z,11.85
2018-10-19T06:58:08.279Z,11.79
2018-10-19T07:00:37.045Z,11.77
2018-10-19T07:03:06.854Z,11.77
2018-10-19T07:05:35.539Z,11.90
2018-10-19T07:08:04.478Z,11.96
2018-10-19T07:10:33.240Z,12.01
2018-10-19T07:13:02.082Z,12.07
2018-10-19T07:15:30.857Z,12.09
2018-10-19T07:17:59.637Z,12.11
2018-10-19T07:20:28.290Z,12.16
2018-10-19T07:22:56.957Z,12.09
2018-10-19T07:25:25.880Z,12.13
2018-10-19T07:27:54.575Z,12.12
2018-10-19T07:30:23.588Z,12.11
2018-10-19T07:32:52.430Z,12.14
2018-10-19T07:35:21.213Z,12.14
2018-10-19T07:37:49.955Z,12.20
2018-10-19T07:40:18.597Z,12.24
2018-10-19T07:42:47.292Z,12.33
2018-10-19T07:45:16.183Z,12.31
2018-10-19T07:47:44.970Z,12.33
2018-10-19T07:50:13.833Z,12.34
2018-10-19T07:52:42.907Z,12.33
2018-10-19T07:55:12.315Z,12.30
2018-10-19T07:57:41.052Z,12.25
2018-10-19T08:00:10.939Z,12.27
2018-10-19T08:02:39.847Z,12.37
2018-10-19T08:05:09.511Z,12.42
2018-10-19T08:07:38.220Z,12.38
2018-10-19T08:10:08.190Z,12.43
2018-10-19T08:12:36.844Z,12.54
2018-10-19T08:15:06.349Z,12.60
2018-10-19T08:17:35.092Z,12.70
2018-10-19T08:20:03.982Z,12.82
2018-10-19T08:22:32.890Z,12.98
2018-10-19T08:25:01.602Z,13.13
2018-10-19T08:27:30.355Z,13.18
2018-10-19T08:29:59.205Z,13.31
2018-10-19T08:32:27.865Z,13.36
2018-10-19T08:34:56.522Z,13.32
2018-10-19T08:37:25.287Z,13.43
2018-10-19T08:39:54.283Z,13.44
2018-10-19T08:42:23.008Z,13.48
2018-10-19T08:44:51.694Z,13.60
2018-10-19T08:47:20.351Z,13.62
2018-10-19T08:49:49.243Z,13.71
2018-10-19T08:52:18.196Z,13.82
2018-10-19T08:54:46.993Z,13.89
2018-10-19T08:57:15.824Z,13.89
2018-10-19T08:59:45.253Z,13.91
2018-10-19T09:02:14.044Z,13.96
2018-10-19T09:04:42.767Z,13.96
2018-10-19T09:07:11.436Z,13.98
2018-10-19T09:09:40.060Z,14.01
2018-10-19T09:12:08.708Z,13.97
2018-10-19T09:14:55.251Z,13.94
2018-10-19T09:17:24.925Z,14.04
2018-10-19T09:19:54.063Z,14.15
2018-10-19T09:22:22.989Z,14.11
2018-10-19T09:24:52.329Z,14.12
2018-10-19T09:27:21.334Z,14.20
2018-10-19T09:29:50.037Z,14.20
2018-10-19T09:32:18.735Z,14.24
2018-10-19T09:34:47.382Z,14.17
2018-10-19T09:37:16.190Z,14.12
2018-10-19T09:39:45.018Z,14.13
2018-10-19T09:42:13.918Z,14.20
2018-10-19T09:44:42.656Z,14.32
2018-10-19T09:47:11.326Z,14.45
2018-10-19T09:49:40.140Z,14.50
2018-10-19T09:52:08.792Z,14.57
2018-10-19T09:54:37.544Z,14.55
2018-10-19T09:57:06.324Z,14.62
2018-10-19T09:59:35.193Z,14.72
2018-10-19T10:02:03.912Z,14.77
2018-10-19T10:04:32.726Z,14.80
2018-10-19T10:07:01.434Z,14.87
2018-10-19T10:09:30.055Z,14.86
2018-10-19T10:11:58.700Z,14.88
2018-10-19T10:14:27.473Z,14.93
2018-10-19T10:16:56.297Z,14.96
2018-10-19T10:19:25.018Z,14.95
2018-10-19T10:21:53.680Z,14.95
2018-10-19T10:24:22.533Z,14.88
2018-10-19T10:26:51.223Z,14.83
2018-10-19T10:29:20.393Z,14.78
2018-10-19T10:31:49.102Z,14.91
2018-10-19T10:34:17.908Z,14.95
2018-10-19T10:36:46.823Z,15.01
2018-10-19T10:39:15.588Z,15.02
2018-10-19T10:41:44.487Z,14.96
2018-10-19T10:44:13.248Z,14.99
2018-10-19T10:46:41.934Z,15.05
2018-10-19T10:49:10.660Z,15.00
2018-10-19T10:51:39.584Z,15.13
2018-10-19T10:54:08.360Z,15.23
2018-10-19T10:56:37.055Z,15.29
2018-10-19T10:59:05.714Z,15.40
2018-10-19T11:01:34.450Z,15.43
2018-10-19T11:04:03.151Z,15.45
2018-10-19T11:06:31.986Z,15.46
2018-10-19T11:09:00.938Z,15.54
2018-10-19T11:11:29.675Z,15.62
2018-10-19T11:13:58.383Z,15.69
2018-10-19T11:16:27.164Z,15.82
2018-10-19T11:18:55.836Z,15.90
2018-10-19T11:21:24.740Z,16.00
2018-10-19T11:23:53.441Z,16.08
2018-10-19T11:26:22.258Z,16.17
2018-10-19T11:28:50.959Z,16.18
2018-10-19T11:31:19.793Z,16.19
2018-10-19T11:33:48.591Z,16.11
2018-10-19T11:36:17.288Z,16.09
2018-10-19T11:38:45.927Z,16.13
2018-10-19T11:41:14.634Z,16.28
2018-10-19T11:43:43.294Z,16.46
2018-10-19T11:46:12.037Z,16.58
2018-10-19T11:48:40.938Z,16.56
2018-10-19T11:51:09.735Z,16.52
2018-10-19T11:53:38.593Z,16.47
2018-10-19T11:56:07.255Z,16.45
2018-10-19T11:58:35.973Z,16.37
2018-10-19T12:01:05.193Z,16.39
2018-10-19T12:03:34.055Z,16.36
2018-10-19T12:06:03.225Z,16.30
2018-10-19T12:08:31.934Z,16.22
2018-10-19T12:11:00.806Z,16.18
2018-10-19T12:13:29.509Z,16.20
2018-10-19T12:15:58.226Z,16.27
2018-10-19T12:18:27.109Z,16.28
2018-10-19T12:20:55.823Z,16.40
2018-10-19T12:23:24.655Z,16.55
2018-10-19T12:25:53.352Z,16.72
2018-10-19T12:28:22.215Z,16.87
2018-10-19T12:30:51.037Z,17.05
2018-10-19T12:33:19.843Z,17.08
2018-10-19T12:35:48.491Z,17.15
2018-10-19T12:38:17.110Z,17.25
2018-10-19T12:40:45.770Z,17.21
2018-10-19T12:43:15.348Z,17.19
2018-10-19T12:47:17.952Z,17.19
2018-10-19T12:49:46.853Z,17.08
2018-10-19T12:52:15.543Z,16.86
2018-10-19T12:54:44.238Z,16.85
2018-10-19T12:57:12.947Z,16.74
2018-10-19T12:59:41.895Z,16.72
2018-10-19T13:02:13.465Z,16.79
2018-10-19T13:04:42.330Z,16.84
2018-10-19T13:07:11.185Z,16.80
2018-10-19T13:09:40.020Z,16.87
2018-10-19T13:12:08.766Z,16.89
2018-10-19T13:14:37.455Z,16.92
2018-10-19T13:17:06.858Z,16.90
2018-10-19T13:19:35.586Z,16.99
2018-10-19T13:22:04.226Z,17.07
2018-10-19T13:24:32.915Z,17.10
2018-10-19T13:27:01.809Z,17.07
2018-10-19T13:29:30.705Z,16.89
2018-10-19T13:31:59.402Z,16.95
2018-10-19T13:34:28.159Z,17.06
2018-10-19T13:36:57.004Z,17.15
2018-10-19T13:39:25.715Z,17.05
2018-10-19T13:41:54.587Z,17.03
2018-10-19T13:44:23.335Z,17.03
2018-10-19T13:46:52.167Z,16.94
2018-10-19T13:49:20.801Z,16.89
2018-10-19T13:51:49.466Z,16.77
2018-10-19T13:56:59.501Z,16.72
2018-10-19T13:59:28.167Z,16.66
2018-10-19T14:01:56.869Z,16.57
2018-10-19T14:04:25.540Z,16.57
2018-10-19T14:06:54.336Z,16.60
2018-10-19T14:09:23.018Z,16.51
2018-10-19T14:11:51.677Z,16.44
2018-10-19T14:14:20.399Z,16.48
2018-10-19T14:16:49.037Z,16.45
2018-10-19T14:19:17.774Z,16.50
2018-10-19T14:21:46.592Z,16.52
2018-10-19T14:24:15.454Z,16.53
2018-10-19T14:26:44.419Z,16.41
2018-10-19T14:29:13.513Z,16.35
2018-10-19T14:31:42.341Z,16.37
2018-10-19T14:34:11.044Z,16.38
2018-10-19T14:36:39.685Z,16.27
2018-10-19T14:39:08.414Z,16.18
2018-10-19T14:41:37.119Z,16.09
2018-10-19T14:44:05.926Z,16.10
2018-10-19T14:46:35.430Z,16.00
2018-10-19T14:49:04.167Z,15.99
2018-10-19T14:51:32.879Z,15.82
2018-10-19T14:54:01.530Z,15.75
2018-10-19T14:56:30.264Z,15.73
2018-10-19T14:58:58.904Z,15.77
2018-10-19T15:01:27.782Z,15.72
2018-10-19T15:03:56.529Z,15.78
2018-10-19T15:06:25.532Z,15.63
2018-10-19T15:08:54.331Z,15.54
2018-10-19T15:11:23.514Z,15.50
2018-10-19T15:13:51.994Z,15.46
2018-10-19T15:16:20.700Z,15.37
2018-10-19T15:18:49.362Z,15.27
2018-10-19T15:21:18.017Z,15.20
2018-10-19T15:23:46.786Z,15.17
2018-10-19T15:26:15.572Z,15.12
2018-10-19T15:28:44.298Z,15.13
2018-10-19T15:31:12.944Z,15.10
2018-10-19T15:33:41.585Z,15.01
2018-10-19T15:36:10.301Z,14.89
2018-10-19T15:38:39.099Z,14.88
2018-10-19T15:41:07.914Z,14.84
2018-10-19T15:43:36.674Z,14.69
2018-10-19T15:46:05.598Z,14.55
2018-10-19T15:48:34.248Z,14.54
2018-10-19T15:51:02.951Z,14.48
2018-10-19T15:53:31.821Z,14.43
2018-10-19T15:56:00.475Z,14.46
2018-10-19T15:58:29.126Z,14.41
2018-10-19T16:00:57.978Z,14.35
2018-10-19T16:03:26.702Z,14.36
2018-10-19T16:05:55.515Z,14.39
2018-10-19T16:08:24.587Z,14.46
2018-10-19T16:10:53.411Z,14.45
2018-10-19T16:13:22.294Z,14.36
2018-10-19T16:15:50.950Z,14.29
2018-10-19T16:18:19.699Z,14.30
2018-10-19T16:20:48.470Z,14.28
2018-10-19T16:23:17.198Z,14.23
2018-10-19T16:25:45.942Z,14.13
2018-10-19T16:28:14.619Z,14.12
2018-10-19T16:30:43.287Z,14.05
2018-10-19T16:33:12.055Z,13.98
2018-10-19T16:35:40.901Z,13.97
2018-10-19T16:38:09.773Z,13.97
2018-10-19T16:40:38.462Z,14.00
2018-10-19T16:43:07.252Z,13.98
2018-10-19T16:45:35.948Z,14.01
2018-10-19T16:48:04.708Z,13.97
2018-10-19T16:50:33.519Z,13.97
2018-10-19T16:53:02.303Z,13.97
2018-10-19T16:55:31.066Z,13.99
2018-10-19T16:58:01.092Z,13.96
2018-10-19T17:00:30.706Z,14.03
2018-10-19T17:03:00.299Z,14.01
2018-10-19T17:05:29.290Z,13.93
2018-10-19T17:07:58.889Z,13.94
2018-10-19T17:10:27.611Z,14.04
2018-10-19T17:12:56.359Z,14.05
2018-10-19T17:15:25.082Z,14.01
2018-10-19T17:17:54.063Z,13.92
2018-10-19T17:20:22.951Z,13.87
2018-10-19T17:22:53.192Z,13.82
2018-10-19T17:25:22.281Z,13.78
2018-10-19T17:27:51.176Z,13.81
2018-10-19T17:30:20.850Z,13.81
2018-10-19T17:32:49.790Z,13.76
2018-10-19T17:35:19.249Z,13.80
2018-10-19T17:37:48.693Z,13.88
2018-10-19T17:40:17.374Z,13.86
2018-10-19T17:42:46.799Z,13.84
2018-10-19T17:45:15.800Z,13.80
2018-10-19T17:47:44.624Z,13.81
2018-10-19T17:50:13.854Z,13.80
2018-10-19T17:52:42.529Z,13.79
2018-10-19T17:55:12.331Z,13.74
2018-10-19T17:57:41.640Z,13.77
2018-10-19T18:00:12.363Z,13.78
2018-10-19T18:02:42.248Z,13.75
2018-10-19T18:05:12.236Z,13.71
2018-10-19T18:07:41.513Z,13.68
2018-10-19T18:10:10.642Z,13.75
2018-10-19T18:12:40.115Z,13.78
2018-10-19T18:15:09.814Z,13.79
2018-10-19T18:17:39.370Z,13.71
2018-10-19T18:20:09.450Z,13.65
2018-10-19T18:22:38.770Z,13.58
2018-10-19T18:25:08.263Z,13.53
2018-10-19T18:27:38.127Z,13.49
2018-10-19T18:30:07.556Z,13.49
2018-10-19T18:32:37.278Z,13.65
2018-10-19T18:35:07.831Z,13.66
2018-10-19T18:37:36.681Z,13.59
2018-10-19T18:40:07.244Z,13.55
2018-10-19T18:42:36.040Z,13.50
2018-10-19T18:45:04.954Z,13.47
2018-10-19T18:47:33.947Z,13.45
2018-10-19T18:50:03.659Z,13.46
2018-10-19T18:52:32.745Z,13.46
2018-10-19T18:55:02.381Z,13.43
2018-10-19T18:57:32.164Z,13.44
2018-10-19T19:00:00.900Z,13.46
2018-10-19T19:02:29.586Z,13.49
2018-10-19T19:04:58.298Z,13.48
2018-10-19T19:07:27.172Z,13.49
2018-10-19T19:10:01.142Z,13.47
2018-10-19T19:12:29.848Z,13.49
2018-10-19T19:14:58.519Z,13.47
2018-10-19T19:17:27.200Z,13.44
2018-10-19T19:20:01.175Z,13.42
2018-10-19T19:22:30.066Z,13.54
2018-10-19T19:25:03.917Z,13.55
2018-10-19T19:27:32.701Z,13.55
2018-10-19T19:30:01.724Z,13.55
2018-10-19T19:32:30.370Z,13.49
2018-10-19T19:34:59.115Z,13.42
2018-10-19T19:37:27.822Z,13.45
2018-10-19T19:39:56.492Z,13.47
2018-10-19T19:42:30.474Z,13.43
2018-10-19T19:44:59.142Z,13.45
2018-10-19T19:47:33.411Z,13.54
2018-10-19T19:50:04.538Z,13.57
2018-10-19T19:52:33.451Z,13.51
2018-10-19T19:55:02.098Z,13.41
2018-10-19T19:57:30.743Z,13.36
2018-10-19T19:59:59.518Z,13.31
2018-10-19T20:02:28.174Z,13.27
2018-10-19T20:04:56.917Z,13.25
2018-10-19T20:07:25.781Z,13.23
2018-10-19T20:09:54.500Z,13.22
2018-10-19T20:12:23.645Z,13.24
2018-10-19T20:14:53.827Z,13.27
2018-10-19T20:17:22.824Z,13.27
2018-10-19T20:19:51.598Z,13.33
2018-10-19T20:22:20.326Z,13.39
2018-10-19T20:24:49.165Z,13.39
2018-10-19T20:27:17.866Z,13.39
2018-10-19T20:29:46.664Z,13.39
2018-10-19T20:32:15.574Z,13.40
2018-10-19T20:34:44.714Z,13.41
2018-10-19T20:37:13.403Z,13.43
2018-10-19T20:39:42.078Z,13.43
2018-10-19T20:42:10.833Z,13.44
2018-10-19T20:44:39.520Z,13.44
2018-10-19T20:47:08.275Z,13.47
2018-10-19T20:49:37.190Z,13.53
2018-10-19T20:52:06.190Z,13.51
2018-10-19T20:54:35.093Z,13.54
2018-10-19T20:57:03.766Z,13.54
2018-10-19T20:59:32.427Z,13.54
2018-10-19T21:02:01.186Z,13.53
2018-10-19T21:04:29.977Z,13.50
2018-10-19T21:06:58.678Z,13.48
2018-10-19T21:09:27.567Z,13.45
2018-10-19T21:11:56.308Z,13.45
2018-10-19T21:14:25.066Z,13.44
2018-10-19T21:16:53.804Z,13.43
2018-10-19T21:19:22.649Z,13.47
2018-10-19T21:21:51.334Z,13.62
2018-10-19T21:24:20.296Z,13.60
2018-10-19T21:26:49.406Z,13.63
2018-10-19T21:29:18.265Z,13.56
2018-10-19T21:31:47.329Z,13.51
2018-10-19T21:34:16.078Z,13.45
2018-10-19T21:36:44.790Z,13.39
2018-10-19T21:39:13.473Z,13.34
2018-10-19T21:41:42.159Z,13.32
2018-10-19T21:44:10.891Z,13.33
2018-10-19T21:46:39.705Z,13.33
2018-10-19T21:49:08.416Z,13.29
2018-10-19T21:51:37.223Z,13.29
2018-10-19T21:54:06.849Z,13.27
2018-10-19T21:56:35.559Z,13.26
2018-10-19T21:59:04.243Z,13.24
2018-10-19T22:01:33.427Z,13.22
2018-10-19T22:04:02.110Z,13.22
2018-10-19T22:06:30.774Z,13.22
2018-10-19T22:09:00.246Z,13.21
2018-10-19T22:11:29.166Z,13.18
2018-10-19T22:13:57.878Z,13.19
2018-10-19T22:16:26.536Z,13.19
2018-10-19T22:18:55.226Z,13.17
2018-10-19T22:21:24.037Z,13.15
2018-10-19T22:23:52.722Z,13.16
2018-10-19T22:26:21.450Z,13.19
2018-10-19T22:28:50.157Z,13.25
2018-10-19T22:31:18.971Z,13.25
2018-10-19T22:33:47.667Z,13.21
2018-10-19T22:36:16.318Z,13.20
2018-10-19T22:38:44.988Z,13.17
2018-10-19T22:41:13.632Z,13.18
2018-10-19T22:43:42.557Z,13.18
2018-10-19T22:46:11.231Z,13.16
2018-10-19T22:48:40.048Z,13.18
2018-10-19T22:51:08.917Z,13.18
2018-10-19T22:53:37.599Z,13.18
2018-10-19T22:56:06.546Z,13.12
2018-10-19T22:58:35.189Z,13.08
2018-10-19T23:01:03.906Z,13.12
2018-10-19T23:03:32.828Z,13.12
2018-10-19T23:06:01.813Z,13.17
2018-10-19T23:08:30.593Z,13.12
2018-10-19T23:10:59.392Z,13.10
2018-10-19T23:13:28.529Z,13.04
2018-10-19T23:15:57.212Z,13.10
2018-10-19T23:18:25.862Z,13.18
2018-10-19T23:20:54.505Z,13.14
2018-10-19T23:23:23.133Z,13.10
2018-10-19T23:25:52.046Z,13.14
2018-10-19T23:28:20.762Z,13.12
2018-10-19T23:30:49.452Z,13.03
2018-10-19T23:33:18.152Z,12.97
2018-10-19T23:35:46.814Z,12.93
2018-10-19T23:38:15.512Z,12.93
2018-10-19T23:40:44.173Z,12.93
2018-10-19T23:43:12.860Z,12.94
2018-10-19T23:45:41.714Z,12.89
2018-10-19T23:48:10.475Z,13.04
2018-10-19T23:50:39.145Z,12.98
2018-10-19T23:53:07.858Z,12.92
2018-10-19T23:55:36.651Z,12.90
2018-10-19T23:58:05.331Z,12.82
